Time;durP1;ratioP1;P1;durP2;ratioP2;P2;SDS_P1;SDS_P2;PMS_P1;PMS_P2;Temp;Humidity;BMP_temperature;BMP_pressure;BME280_temperature;BME280_humidity;BME280_pressure;Samples;Min_cycle;Max_cycle;Signal;HPM_P1;HPM_P2
2023/12/10 00:02:00;;;;;;;12.70;3.40;;;;;;;8.50;55.45;99606.34;4923527;29;20047;-72
2023/12/10 00:04:28;;;;;;;14.50;3.47;;;;;;;8.50;55.05;99614.53;4908302;29;20044;-72
2023/12/10 00:06:57;;;;;;;15.70;4.28;;;;;;;8.51;55.46;99610.78;4929662;29;20087;-72
2023/12/10 00:09:25;;;;;;;13.07;3.22;;;;;;;8.50;55.32;99612.66;4930919;29;20040;-72
2023/12/10 00:11:53;;;;;;;11.75;3.17;;;;;;;8.51;55.43;99606.19;4928720;29;20734;-72
2023/12/10 00:14:22;;;;;;;10.98;2.83;;;;;;;8.52;54.78;99607.91;4921543;29;20066;-72
2023/12/10 00:16:50;;;;;;;13.55;2.80;;;;;;;8.51;54.88;99610.78;4926401;29;20056;-72
2023/12/10 00:19:18;;;;;;;10.88;3.25;;;;;;;8.52;54.84;99607.03;4918495;29;20051;-72
2023/12/10 00:21:46;;;;;;;12.07;3.25;;;;;;;8.52;54.78;99609.75;4920452;29;20532;-72
2023/12/10 00:24:14;;;;;;;12.68;3.28;;;;;;;8.51;55.12;99614.34;4922904;29;20052;-72
2023/12/10 00:26:42;;;;;;;9.80;2.55;;;;;;;8.52;54.93;99613.34;4927659;29;20047;-72
2023/12/10 00:29:10;;;;;;;11.15;3.20;;;;;;;8.52;54.92;99618.81;4911051;29;20421;-72
2023/12/10 00:31:43;;;;;;;16.00;3.22;;;;;;;8.54;54.23;99618.66;4901810;29;20140;-72
2023/12/10 00:34:12;;;;;;;11.05;2.67;;;;;;;8.51;54.68;99616.22;4925072;29;20058;-72
2023/12/10 00:36:40;;;;;;;11.20;3.45;;;;;;;8.52;54.72;99629.72;4911060;29;20596;-72
2023/12/10 00:39:09;;;;;;;14.93;3.72;;;;;;;8.53;54.38;99622.41;4919622;29;20051;-72
2023/12/10 00:41:37;;;;;;;10.55;2.70;;;;;;;8.52;54.30;99621.53;4929548;29;20044;-72
2023/12/10 00:44:05;;;;;;;9.10;2.72;;;;;;;8.52;54.64;99631.56;4910749;29;20060;-72
2023/12/10 00:46:33;;;;;;;10.40;2.80;;;;;;;8.52;54.73;99628.84;4922651;29;20490;-72
2023/12/10 00:49:03;;;;;;;13.70;4.00;;;;;;;8.54;54.22;99624.13;4935792;28;20046;-72
2023/12/10 00:51:31;;;;;;;12.63;3.05;;;;;;;8.53;54.48;99630.56;4929475;29;20047;-72
2023/12/10 00:53:59;;;;;;;10.05;2.80;;;;;;;8.52;54.10;99640.63;4920570;29;20134;-73
2023/12/10 00:56:27;;;;;;;12.75;2.70;;;;;;;8.53;54.19;99642.34;4924063;29;20050;-72
2023/12/10 00:58:55;;;;;;;11.25;3.10;;;;;;;8.53;54.13;99646.94;4910447;29;20518;-73
2023/12/10 01:01:23;;;;;;;11.45;2.70;;;;;;;8.54;53.85;99652.25;4918985;29;20040;-73
2023/12/10 01:03:51;;;;;;;11.23;2.60;;;;;;;8.54;54.01;99654.13;4922142;29;20070;-72
2023/12/10 01:06:21;;;;;;;11.77;3.38;;;;;;;8.55;53.78;99651.25;4916814;29;20131;-72
2023/12/10 01:08:49;;;;;;;14.00;3.85;;;;;;;8.56;54.25;99649.38;4916674;29;20048;-73
2023/12/10 01:11:17;;;;;;;10.77;3.50;;;;;;;8.56;54.12;99665.72;4920314;29;20131;-73
2023/12/10 01:13:45;;;;;;;10.05;3.42;;;;;;;8.57;53.56;99662.88;4907532;29;20040;-72
2023/12/10 01:16:16;;;;;;;10.63;2.58;;;;;;;8.56;53.72;99652.97;4920661;29;20044;-72
2023/12/10 01:18:44;;;;;;;14.73;3.60;;;;;;;8.58;53.57;99652.81;4925690;29;20058;-72
2023/12/10 01:21:12;;;;;;;12.05;2.92;;;;;;;8.59;53.53;99660.81;4913628;29;20051;-72
2023/12/10 01:23:42;;;;;;;10.75;3.28;;;;;;;8.59;53.21;99666.28;4932210;28;20051;-72
2023/12/10 01:26:12;;;;;;;13.70;3.47;;;;;;;8.59;53.42;99669.00;4916671;29;20070;-72
2023/12/10 01:28:41;;;;;;;11.63;2.95;;;;;;;8.60;53.48;99672.59;4928083;29;20035;-72
2023/12/10 01:31:09;;;;;;;15.13;2.90;;;;;;;8.60;53.79;99673.44;4923209;29;20517;-72
2023/12/10 01:33:37;;;;;;;10.27;3.75;;;;;;;8.61;53.35;99679.75;4928023;28;20413;-72
2023/12/10 01:36:06;;;;;;;9.65;2.90;;;;;;;8.64;53.67;99687.66;4907103;29;20714;-72
2023/12/10 01:38:34;;;;;;;14.88;3.35;;;;;;;8.64;53.43;99691.25;4928942;29;20639;-73
2023/12/10 01:41:04;;;;;;;10.20;2.90;;;;;;;8.64;53.25;99704.88;4897593;29;20540;-72
2023/12/10 01:43:32;;;;;;;9.85;2.92;;;;;;;8.64;53.62;99691.25;4921420;29;20048;-72
2023/12/10 01:46:00;;;;;;;12.85;2.83;;;;;;;8.65;53.01;99708.47;4916980;29;20209;-72
2023/12/10 01:48:29;;;;;;;9.23;2.58;;;;;;;8.66;53.05;99699.28;4923812;29;20135;-72
2023/12/10 01:50:58;;;;;;;10.60;2.95;;;;;;;8.67;53.05;99720.09;4920734;29;20123;-72
2023/12/10 01:53:26;;;;;;;10.65;2.85;;;;;;;8.67;52.97;99726.38;4911069;29;20051;-72
2023/12/10 01:55:54;;;;;;;14.18;2.90;;;;;;;8.67;52.84;99717.38;4916756;29;20076;-72
2023/12/10 01:58:23;;;;;;;10.73;2.70;;;;;;;8.70;53.02;99714.31;4916927;29;20134;-73
2023/12/10 02:00:51;;;;;;;9.45;2.95;;;;;;;8.69;52.78;99715.34;4917740;29;20544;-72
2023/12/10 02:03:19;;;;;;;9.52;2.70;;;;;;;8.70;52.89;99717.06;4925429;29;20099;-71
2023/12/10 02:05:47;;;;;;;10.85;2.60;;;;;;;8.70;52.87;99728.81;4928053;29;20040;-72
2023/12/10 02:08:16;;;;;;;10.88;2.85;;;;;;;8.71;53.00;99721.50;4923022;29;20199;-72
2023/12/10 02:10:43;;;;;;;13.20;2.60;;;;;;;8.71;53.02;99729.69;4922476;29;20048;-72
2023/12/10 02:13:12;;;;;;;12.32;2.80;;;;;;;8.73;52.47;99730.41;4927819;29;20149;-72
2023/12/10 02:15:41;;;;;;;11.15;3.20;;;;;;;8.74;52.52;99731.25;4934677;28;20043;-72
2023/12/10 02:18:09;;;;;;;9.98;2.70;;;;;;;8.73;52.63;99724.94;4917611;29;20555;-72
2023/12/10 02:20:38;;;;;;;11.20;2.58;;;;;;;8.73;52.28;99738.59;4933864;29;20047;-72
2023/12/10 02:23:12;;;;;;;12.13;2.72;;;;;;;8.76;51.70;99737.41;4917247;29;20434;-72
2023/12/10 02:25:41;;;;;;;9.70;2.58;;;;;;;8.76;52.49;99745.59;4910900;29;20051;-72
2023/12/10 02:28:10;;;;;;;9.90;2.60;;;;;;;8.75;52.11;99752.09;4924900;29;20047;-72
2023/12/10 02:30:38;;;;;;;9.45;2.65;;;;;;;8.75;52.58;99743.91;4922023;29;20063;-72
2023/12/10 02:33:06;;;;;;;9.43;2.30;;;;;;;8.74;52.52;99764.88;4922138;29;20132;-72
2023/12/10 02:35:34;;;;;;;10.25;2.70;;;;;;;8.75;52.06;99755.66;4907779;29;20048;-72
2023/12/10 02:38:04;;;;;;;11.07;2.63;;;;;;;8.75;52.31;99757.53;4923595;29;20678;-72
2023/12/10 02:40:32;;;;;;;12.48;2.40;;;;;;;8.75;52.02;99763.84;4927886;29;20217;-72
2023/12/10 02:43:02;;;;;;;7.35;2.20;;;;;;;8.75;51.80;99761.13;4918516;29;20386;-72
2023/12/10 02:45:31;;;;;;;11.15;2.75;;;;;;;8.73;51.67;99752.22;4930776;28;20412;-72
2023/12/10 02:47:59;;;;;;;8.40;3.20;;;;;;;8.74;51.86;99764.00;4915479;29;20139;-72
2023/12/10 02:50:27;;;;;;;8.05;2.50;;;;;;;8.74;51.58;99761.28;4905315;29;20075;-72
2023/12/10 02:52:55;;;;;;;12.18;2.67;;;;;;;8.75;51.30;99757.53;4928255;29;20458;-72
2023/12/10 02:55:23;;;;;;;9.60;2.28;;;;;;;8.73;51.80;99765.00;4930533;29;20055;-72
2023/12/10 02:57:51;;;;;;;8.68;2.35;;;;;;;8.73;51.23;99757.69;4927665;28;20104;-72
2023/12/10 03:00:20;;;;;;;11.75;2.75;;;;;;;8.75;51.41;99757.53;4929422;29;20519;-72
2023/12/10 03:02:49;;;;;;;6.78;2.20;;;;;;;8.73;51.33;99768.59;4923142;29;20054;-72
2023/12/10 03:05:17;;;;;;;7.65;2.53;;;;;;;8.73;51.55;99779.50;4916742;29;20107;-72
2023/12/10 03:07:45;;;;;;;7.35;2.22;;;;;;;8.73;51.16;99790.41;4925736;29;20054;-72
2023/12/10 03:10:13;;;;;;;7.07;2.00;;;;;;;8.74;51.43;99791.28;4922702;29;20123;-72
2023/12/10 03:12:41;;;;;;;7.95;1.98;;;;;;;8.74;51.06;99797.59;4923208;29;20068;-72
2023/12/10 03:15:09;;;;;;;9.45;2.20;;;;;;;8.74;51.30;99808.50;4918749;29;20047;-72
2023/12/10 03:17:39;;;;;;;11.10;3.15;;;;;;;8.75;50.90;99809.38;4931095;29;20044;-73
2023/12/10 03:20:09;;;;;;;8.15;2.00;;;;;;;8.75;51.38;99814.81;4919383;29;20082;-72
2023/12/10 03:22:37;;;;;;;9.20;3.08;;;;;;;8.73;50.98;99805.91;4916107;29;20103;-72
2023/12/10 03:25:06;;;;;;;6.40;1.80;;;;;;;8.72;51.27;99815.97;4912805;29;20549;-72
2023/12/10 03:27:34;;;;;;;8.20;2.42;;;;;;;8.73;50.71;99825.03;4899314;29;20076;-72
2023/12/10 03:30:02;;;;;;;7.38;2.10;;;;;;;8.70;50.88;99828.88;4915990;29;20047;-72
2023/12/10 03:32:31;;;;;;;8.52;1.95;;;;;;;8.71;51.03;99825.16;4904523;29;20051;-72
2023/12/10 03:35:01;;;;;;;10.63;2.00;;;;;;;8.69;50.97;99836.22;4927045;29;20047;-72
2023/12/10 03:37:29;;;;;;;9.68;2.22;;;;;;;8.67;51.17;99831.94;4925939;29;20063;-72
2023/12/10 03:39:57;;;;;;;7.63;1.83;;;;;;;8.65;51.18;99840.25;4925037;29;20087;-72
2023/12/10 03:42:25;;;;;;;8.73;1.80;;;;;;;8.64;51.13;99837.66;4932218;29;20047;-71
2023/12/10 03:44:53;;;;;;;7.65;1.92;;;;;;;8.62;51.04;99843.25;4929325;29;20161;-72
2023/12/10 03:47:21;;;;;;;7.97;2.30;;;;;;;8.60;50.91;99841.69;4924213;29;20051;-72
2023/12/10 03:49:49;;;;;;;6.53;1.88;;;;;;;8.59;51.00;99839.94;4904385;29;20549;-72
2023/12/10 03:52:18;;;;;;;6.95;1.88;;;;;;;8.58;50.85;99841.84;4903773;29;20055;-72
2023/12/10 03:54:46;;;;;;;7.95;2.72;;;;;;;8.56;51.26;99843.00;4924798;29;20055;-72
2023/12/10 03:57:14;;;;;;;9.23;2.17;;;;;;;8.54;50.92;99842.28;4920937;29;20131;-72
2023/12/10 03:59:42;;;;;;;6.60;1.77;;;;;;;8.53;51.35;99848.72;4920376;29;21159;-72
2023/12/10 04:02:10;;;;;;;11.55;2.00;;;;;;;8.50;51.13;99844.44;4931335;29;20106;-72
2023/12/10 04:04:38;;;;;;;8.93;2.00;;;;;;;8.48;51.06;99848.31;4920977;29;20127;-72
2023/12/10 04:07:06;;;;;;;7.85;2.08;;;;;;;8.47;51.54;99843.88;4925125;29;20051;-72
2023/12/10 04:09:36;;;;;;;8.60;2.03;;;;;;;8.47;51.33;99854.78;4899246;29;20470;-72
2023/12/10 04:12:05;;;;;;;9.57;2.38;;;;;;;8.43;51.52;99843.28;4920306;29;20053;-72
2023/12/10 04:14:33;;;;;;;8.32;2.28;;;;;;;8.42;51.49;99848.91;4934982;29;20590;-72
2023/12/10 04:17:01;;;;;;;6.10;1.98;;;;;;;8.42;51.38;99857.09;4927346;29;20055;-72
2023/12/10 04:19:29;;;;;;;10.85;2.30;;;;;;;8.40;51.58;99843.59;4925821;29;20063;-72
2023/12/10 04:21:57;;;;;;;8.02;2.38;;;;;;;8.38;51.56;99851.06;4925086;28;20552;-72
2023/12/10 04:24:25;;;;;;;7.57;2.13;;;;;;;8.39;51.06;99854.63;4911443;29;20043;-72
2023/12/10 04:26:55;;;;;;;8.38;2.28;;;;;;;8.41;51.17;99860.81;4926758;29;20043;-72
2023/12/10 04:29:23;;;;;;;9.43;2.70;;;;;;;8.37;51.59;99853.91;4924211;29;20114;-72
2023/12/10 04:31:51;;;;;;;5.65;1.70;;;;;;;8.36;51.13;99854.91;4930464;29;20502;-72
2023/12/10 04:34:19;;;;;;;11.57;2.53;;;;;;;8.36;51.42;99849.47;4921160;29;20148;-72
2023/12/10 04:36:47;;;;;;;7.47;2.45;;;;;;;8.36;51.07;99861.22;4911929;29;20162;-72
2023/12/10 04:39:16;;;;;;;8.57;2.08;;;;;;;8.36;51.54;99860.38;4928787;28;20566;-72
2023/12/10 04:41:44;;;;;;;9.15;2.10;;;;;;;8.35;51.10;99854.06;4918010;29;20072;-72
2023/12/10 04:44:13;;;;;;;10.20;2.40;;;;;;;8.37;51.08;99843.00;4920675;29;20091;-72
2023/12/10 04:46:41;;;;;;;9.65;2.42;;;;;;;8.35;51.02;99843.16;4921931;29;20079;-72
2023/12/10 04:49:09;;;;;;;9.68;2.55;;;;;;;8.35;51.01;99854.06;4924393;29;20099;-72
2023/12/10 04:51:38;;;;;;;9.60;2.15;;;;;;;8.33;51.11;99854.22;4924694;29;20112;-72
2023/12/10 04:54:06;;;;;;;8.27;2.10;;;;;;;8.34;50.73;99855.91;4920139;29;20597;-72
2023/12/10 04:56:33;;;;;;;6.85;1.80;;;;;;;8.35;51.36;99864.97;4921102;29;20473;-72
2023/12/10 04:59:02;;;;;;;9.40;2.53;;;;;;;8.35;51.25;99867.69;4931292;29;20150;-72
2023/12/10 05:01:31;;;;;;;8.63;2.13;;;;;;;8.38;50.94;99882.91;4921199;29;20044;-73
2023/12/10 05:03:59;;;;;;;6.47;1.90;;;;;;;8.36;51.16;99871.28;4924080;29;20054;-71
2023/12/10 05:06:28;;;;;;;11.23;2.00;;;;;;;8.37;51.25;99875.72;4921923;29;20517;-72
2023/12/10 05:08:56;;;;;;;12.32;2.45;;;;;;;8.38;51.01;99880.19;4912328;29;20063;-71
2023/12/10 05:11:24;;;;;;;8.30;2.30;;;;;;;8.37;51.24;99889.34;4930416;29;20075;-71
2023/12/10 05:13:52;;;;;;;8.68;2.70;;;;;;;8.37;50.73;99898.41;4910186;29;20528;-71
2023/12/10 05:16:20;;;;;;;8.57;2.70;;;;;;;8.39;50.82;99906.44;4931391;29;20104;-71
2023/12/10 05:18:49;;;;;;;11.43;2.35;;;;;;;8.38;51.05;99889.22;4927826;29;20099;-71
2023/12/10 05:21:17;;;;;;;7.78;2.38;;;;;;;8.38;50.95;99900.13;4914083;29;20072;-72
2023/12/10 05:23:45;;;;;;;10.70;2.17;;;;;;;8.41;50.85;99893.53;4903769;29;20051;-74
2023/12/10 05:26:13;;;;;;;8.88;2.63;;;;;;;8.40;50.47;99894.53;4930082;29;20118;-73
2023/12/10 05:28:41;;;;;;;9.02;2.38;;;;;;;8.42;50.60;99908.91;4927372;29;20498;-74
2023/12/10 05:31:10;;;;;;;6.35;2.17;;;;;;;8.41;50.82;99910.75;4912617;29;20132;-74
2023/12/10 05:33:38;;;;;;;10.77;2.47;;;;;;;8.42;50.69;99908.91;4930882;29;20054;-72
2023/12/10 05:36:09;;;;;;;8.75;2.38;;;;;;;8.43;50.47;99911.44;4925337;29;20512;-74
2023/12/10 05:38:37;;;;;;;7.40;1.90;;;;;;;8.43;50.59;99911.44;4910794;29;20114;-73
2023/12/10 05:41:06;;;;;;;10.35;2.47;;;;;;;8.45;50.34;99911.31;4917946;29;20549;-71
2023/12/10 05:43:34;;;;;;;8.75;1.98;;;;;;;8.45;50.74;99905.84;4905133;29;20072;-73
2023/12/10 05:46:02;;;;;;;6.50;1.98;;;;;;;8.46;50.24;99926.66;4921099;29;20048;-73
2023/12/10 05:48:30;;;;;;;7.68;1.90;;;;;;;8.47;50.36;99922.94;4900913;29;20044;-73
2023/12/10 05:50:58;;;;;;;9.02;2.90;;;;;;;8.48;49.99;99925.53;4921398;29;20537;-73
2023/12/10 05:53:28;;;;;;;7.65;1.92;;;;;;;8.51;49.67;99927.09;4919863;29;20044;-73
2023/12/10 05:55:56;;;;;;;7.53;1.90;;;;;;;8.49;50.10;99929.13;4928580;29;20122;-73
2023/12/10 05:58:28;;;;;;;8.73;2.17;;;;;;;8.48;50.22;99946.47;4927030;29;20040;-73
2023/12/10 06:00:56;;;;;;;6.90;1.90;;;;;;;8.52;49.81;99940.59;4920819;29;20292;-72
2023/12/10 06:03:25;;;;;;;5.97;1.92;;;;;;;8.53;49.84;99947.75;4923034;29;20062;-73
2023/12/10 06:05:53;;;;;;;8.50;2.10;;;;;;;8.53;49.64;99947.75;4909398;29;20051;-73
2023/12/10 06:08:21;;;;;;;8.02;2.50;;;;;;;8.53;49.30;99950.50;4906781;29;20043;-73
2023/12/10 06:10:51;;;;;;;6.07;1.98;;;;;;;8.55;49.41;99961.28;4906163;29;20066;-73
2023/12/10 06:13:19;;;;;;;8.05;1.85;;;;;;;8.54;49.57;99967.72;4928007;29;20044;-74
2023/12/10 06:15:47;;;;;;;6.72;1.60;;;;;;;8.55;49.42;99974.91;4925919;29;20131;-72
2023/12/10 06:18:15;;;;;;;6.70;2.15;;;;;;;8.56;49.50;99977.50;4909342;29;20071;-73
2023/12/10 06:20:43;;;;;;;6.93;1.58;;;;;;;8.55;49.13;99983.94;4936912;23;20535;-75
2023/12/10 06:23:11;;;;;;;10.15;2.00;;;;;;;8.57;49.25;99984.69;4930237;29;20504;-73
2023/12/10 06:25:39;;;;;;;5.95;1.63;;;;;;;8.59;49.30;99988.09;4948911;28;20067;-74
2023/12/10 06:28:08;;;;;;;8.43;2.00;;;;;;;8.62;49.00;99996.00;4945330;28;20405;-74
2023/12/10 06:30:36;;;;;;;9.38;2.03;;;;;;;8.61;49.14;100009.78;4929131;29;20123;-74
2023/12/10 06:33:05;;;;;;;8.88;2.05;;;;;;;8.60;48.74;100006.19;4915071;29;20058;-74
2023/12/10 06:35:33;;;;;;;6.50;2.03;;;;;;;8.61;49.22;100007.06;4923157;29;20078;-73
2023/12/10 06:38:00;;;;;;;6.97;1.88;;;;;;;8.63;49.15;100024.16;4929890;29;20048;-73
2023/12/10 06:40:30;;;;;;;10.10;1.90;;;;;;;8.63;49.30;100030.47;4929252;29;20568;-72
2023/12/10 06:42:58;;;;;;;6.88;2.00;;;;;;;8.63;48.87;100037.78;4911945;29;20055;-72
2023/12/10 06:45:27;;;;;;;6.80;1.70;;;;;;;8.66;48.50;100037.50;4929639;29;20159;-72
2023/12/10 06:47:56;;;;;;;6.85;2.00;;;;;;;8.65;48.94;100039.38;4922570;29;20409;-72
2023/12/10 06:50:24;;;;;;;7.57;1.80;;;;;;;8.66;48.96;100056.59;4929665;29;20114;-75
2023/12/10 06:52:52;;;;;;;6.97;2.00;;;;;;;8.66;48.64;100054.75;4930647;29;20408;-72
2023/12/10 06:55:20;;;;;;;6.60;1.67;;;;;;;8.68;48.98;100065.47;4930675;29;20050;-72
2023/12/10 06:57:48;;;;;;;9.77;1.98;;;;;;;8.68;48.52;100069.06;4939739;29;20048;-72
2023/12/10 07:00:17;;;;;;;6.88;1.80;;;;;;;8.68;48.62;100068.22;4929262;29;20047;-72
2023/12/10 07:02:47;;;;;;;5.85;2.17;;;;;;;8.71;48.67;100078.84;4913215;29;20036;-72
2023/12/10 07:05:15;;;;;;;9.85;2.03;;;;;;;8.68;48.71;100090.91;4925820;29;20047;-72
2023/12/10 07:07:44;;;;;;;6.60;2.00;;;;;;;8.67;48.37;100080.97;4926273;29;20513;-72
2023/12/10 07:10:12;;;;;;;7.50;2.33;;;;;;;8.69;48.32;100099.94;4924023;29;20428;-72
2023/12/10 07:12:40;;;;;;;9.68;1.90;;;;;;;8.69;48.73;100089.03;4929973;29;20412;-72
2023/12/10 07:15:09;;;;;;;6.35;1.80;;;;;;;8.71;48.40;100100.69;4919775;29;20106;-72
2023/12/10 07:17:37;;;;;;;8.48;2.05;;;;;;;8.71;48.30;100100.69;4942763;29;20099;-72
2023/12/10 07:20:09;;;;;;;6.68;1.98;;;;;;;8.74;48.01;100096.81;4921777;29;20047;-72
2023/12/10 07:22:37;;;;;;;9.48;2.03;;;;;;;8.69;48.34;100102.69;4930398;29;20713;-72
2023/12/10 07:25:06;;;;;;;7.97;1.92;;;;;;;8.74;48.42;100099.53;4921926;29;20135;-72
2023/12/10 07:27:34;;;;;;;6.47;1.90;;;;;;;8.73;48.19;100131.41;4929409;29;20531;-72
2023/12/10 07:30:02;;;;;;;10.25;2.15;;;;;;;8.75;48.07;100134.00;4929840;29;20039;-72
2023/12/10 07:32:30;;;;;;;9.07;2.25;;;;;;;8.74;48.21;100143.19;4944047;28;20142;-74
2023/12/10 07:34:59;;;;;;;8.95;1.80;;;;;;;8.74;48.26;100137.72;4909907;29;20062;-74
2023/12/10 07:37:29;;;;;;;7.22;1.80;;;;;;;8.75;48.10;100143.06;4926939;29;20051;-74
2023/12/10 07:39:58;;;;;;;7.68;2.05;;;;;;;8.74;48.02;100144.06;4919751;29;20051;-74
2023/12/10 07:42:26;;;;;;;8.05;2.03;;;;;;;8.75;48.30;100162.16;4931036;29;20052;-74
2023/12/10 07:44:55;;;;;;;7.32;2.17;;;;;;;8.77;48.47;100173.75;4926722;29;20044;-74
2023/12/10 07:47:23;;;;;;;7.90;1.77;;;;;;;8.78;48.12;100177.34;4932150;29;20458;-74
2023/12/10 07:49:50;;;;;;;7.95;1.92;;;;;;;8.78;48.34;100178.22;4916920;29;20754;-74
2023/12/10 07:52:19;;;;;;;5.50;2.00;;;;;;;8.78;48.28;100188.28;4916173;29;20049;-74
2023/12/10 07:54:48;;;;;;;6.97;2.00;;;;;;;8.79;48.13;100179.97;4926960;29;20079;-74
2023/12/10 07:57:16;;;;;;;10.50;2.20;;;;;;;8.79;48.26;100190.00;4919712;29;20516;-74
2023/12/10 07:59:44;;;;;;;11.48;2.30;;;;;;;8.80;48.24;100203.50;4932025;29;20135;-73
2023/12/10 08:02:13;;;;;;;9.57;2.40;;;;;;;8.77;48.17;100200.19;4932104;29;20572;-74
2023/12/10 08:04:41;;;;;;;6.55;1.80;;;;;;;8.79;47.58;100198.19;4923425;29;20044;-73
2023/12/10 08:07:09;;;;;;;8.05;2.38;;;;;;;8.79;47.64;100206.38;4929162;29;20044;-73
2023/12/10 08:09:37;;;;;;;5.65;1.85;;;;;;;8.80;48.14;100213.56;4915648;29;20043;-73
2023/12/10 08:12:07;;;;;;;7.35;1.95;;;;;;;8.82;47.68;100214.28;4930903;29;20057;-74
2023/12/10 08:14:35;;;;;;;9.07;2.10;;;;;;;8.81;47.61;100226.22;4914108;29;20579;-73
2023/12/10 08:17:03;;;;;;;8.05;2.10;;;;;;;8.81;47.56;100218.88;4933094;29;20047;-73
2023/12/10 08:19:31;;;;;;;6.72;2.03;;;;;;;8.82;48.04;100226.06;4911944;29;20107;-73
2023/12/10 08:22:00;;;;;;;10.32;2.20;;;;;;;8.83;47.61;100233.25;4931164;29;20524;-73
2023/12/10 08:24:28;;;;;;;6.68;2.10;;;;;;;8.83;48.02;100235.13;4926689;29;20058;-72
2023/12/10 08:26:56;;;;;;;7.72;2.28;;;;;;;8.83;48.02;100238.72;4944524;29;20044;-73
2023/12/10 08:29:25;;;;;;;8.23;1.95;;;;;;;8.84;47.48;100234.09;4928035;29;20099;-73
2023/12/10 08:31:53;;;;;;;7.28;1.77;;;;;;;8.84;47.88;100240.41;4917961;29;20265;-72
2023/12/10 08:34:21;;;;;;;6.30;1.90;;;;;;;8.84;47.40;100243.16;4920934;29;20048;-73
2023/12/10 08:36:49;;;;;;;6.80;2.03;;;;;;;8.85;47.82;100263.09;4914091;29;20079;-72
2023/12/10 08:39:17;;;;;;;5.70;1.90;;;;;;;8.83;47.78;100266.00;4931047;29;21219;-72
2023/12/10 08:41:45;;;;;;;8.15;2.70;;;;;;;8.83;47.69;100266.00;4932160;29;20525;-74
2023/12/10 08:44:14;;;;;;;7.90;2.00;;;;;;;8.83;47.36;100263.28;4914376;29;20106;-72
2023/12/10 08:46:43;;;;;;;8.20;2.63;;;;;;;8.84;47.70;100267.69;4930359;29;20056;-73
2023/12/10 08:49:11;;;;;;;8.40;2.03;;;;;;;8.83;47.75;100267.88;4931468;29;20115;-72
2023/12/10 08:51:39;;;;;;;6.50;2.33;;;;;;;8.84;47.33;100275.03;4916398;29;21055;-72
2023/12/10 08:54:08;;;;;;;7.75;1.85;;;;;;;8.84;47.15;100277.75;4931282;29;20421;-72
2023/12/10 08:56:37;;;;;;;6.82;2.00;;;;;;;8.84;47.34;100277.75;4931203;29;20047;-72
2023/12/10 08:59:05;;;;;;;8.82;2.25;;;;;;;8.84;47.35;100281.34;4928553;29;20078;-71
2023/12/10 09:01:33;;;;;;;9.80;2.40;;;;;;;8.84;47.37;100289.53;4911424;29;20106;-72
2023/12/10 09:04:03;;;;;;;8.98;2.00;;;;;;;8.85;47.49;100280.34;4912962;29;20764;-72
2023/12/10 09:06:31;;;;;;;6.47;1.80;;;;;;;8.86;47.82;100284.81;4928535;29;20044;-72
2023/12/10 09:08:59;;;;;;;7.93;2.03;;;;;;;8.86;47.74;100295.72;4912221;29;20103;-72
2023/12/10 09:11:27;;;;;;;7.88;2.30;;;;;;;8.85;47.46;100302.19;4924483;29;20079;-71
2023/12/10 09:13:55;;;;;;;5.93;1.50;;;;;;;8.86;47.51;100303.03;4931554;29;20071;-71
2023/12/10 09:16:23;;;;;;;5.00;1.85;;;;;;;8.88;47.14;100301.06;4925405;29;20040;-71
2023/12/10 09:18:52;;;;;;;7.57;1.85;;;;;;;8.87;47.78;100319.28;4921854;29;20476;-72
2023/12/10 09:21:22;;;;;;;7.82;2.05;;;;;;;8.90;47.13;100323.63;4914319;29;20040;-72
2023/12/10 09:23:50;;;;;;;7.65;1.95;;;;;;;8.88;47.26;100326.47;4931208;29;20055;-72
2023/12/10 09:26:17;;;;;;;6.60;1.98;;;;;;;8.88;47.50;100325.63;4932523;29;20528;-71
2023/12/10 09:28:45;;;;;;;9.43;2.50;;;;;;;8.88;47.37;100328.34;4926121;29;20047;-72
2023/12/10 09:31:13;;;;;;;7.03;2.30;;;;;;;8.89;47.44;100328.22;4915553;29;20513;-72
2023/12/10 09:33:41;;;;;;;9.05;2.33;;;;;;;8.88;47.45;100337.38;4908469;29;20051;-72
2023/12/10 09:36:09;;;;;;;8.63;2.10;;;;;;;8.90;47.34;100340.84;4924560;29;20044;-72
2023/12/10 09:38:39;;;;;;;6.32;2.35;;;;;;;8.92;47.34;100348.88;4913796;29;20052;-72
2023/12/10 09:41:07;;;;;;;7.38;2.08;;;;;;;8.90;47.50;100349.03;4931867;29;20040;-72
2023/12/10 09:43:35;;;;;;;8.10;2.20;;;;;;;8.90;47.46;100343.59;4930868;29;20108;-72
2023/12/10 09:46:04;;;;;;;6.88;2.08;;;;;;;8.92;47.56;100344.28;4929783;29;20044;-72
2023/12/10 09:48:33;;;;;;;7.78;1.80;;;;;;;8.93;47.55;100345.16;4911021;29;20122;-71
2023/12/10 09:51:01;;;;;;;6.10;2.42;;;;;;;8.92;47.77;100344.28;4931015;29;20040;-72
2023/12/10 09:53:29;;;;;;;8.25;2.08;;;;;;;8.93;47.75;100362.41;4930998;29;20035;-72
2023/12/10 09:55:59;;;;;;;9.40;2.92;;;;;;;8.94;47.22;100338.69;4930302;29;20098;-72
2023/12/10 09:58:27;;;;;;;5.95;1.70;;;;;;;8.93;47.41;100346.03;4928374;29;20048;-73
2023/12/10 10:00:55;;;;;;;8.15;1.98;;;;;;;8.93;47.71;100345.16;4940960;29;20055;-72
2023/12/10 10:03:23;;;;;;;9.43;2.65;;;;;;;8.94;47.49;100346.88;4939575;29;20048;-72
2023/12/10 10:05:54;;;;;;;7.97;2.30;;;;;;;8.96;47.46;100362.13;4944002;28;20096;-72
2023/12/10 10:08:22;;;;;;;7.10;2.20;;;;;;;8.98;47.36;100353.81;4928972;29;20412;-72
2023/12/10 10:10:52;;;;;;;7.82;2.00;;;;;;;8.99;47.73;100356.41;4916880;29;20127;-72
2023/12/10 10:13:22;;;;;;;9.52;2.60;;;;;;;9.02;47.42;100347.06;4915198;29;20074;-72
2023/12/10 10:15:50;;;;;;;6.47;1.90;;;;;;;9.01;47.96;100343.47;4915227;29;20473;-72
2023/12/10 10:18:18;;;;;;;10.57;2.38;;;;;;;9.02;47.65;100345.22;4916869;29;20048;-72
2023/12/10 10:20:47;;;;;;;8.77;2.50;;;;;;;9.04;48.12;100345.06;4930195;29;20086;-72
2023/12/10 10:23:15;;;;;;;7.80;2.35;;;;;;;9.08;47.93;100332.91;4921863;29;20043;-71
2023/12/10 10:25:43;;;;;;;9.02;2.60;;;;;;;9.10;47.98;100342.66;4928342;29;20614;-71
2023/12/10 10:28:13;;;;;;;8.52;2.40;;;;;;;9.13;48.35;100347.00;4926956;29;20128;-72
2023/12/10 10:30:43;;;;;;;8.95;2.40;;;;;;;9.16;47.75;100343.13;4917611;29;20146;-71
2023/12/10 10:33:12;;;;;;;6.07;2.70;;;;;;;9.19;48.04;100340.97;4929919;29;20040;-72
2023/12/10 10:35:40;;;;;;;6.63;2.10;;;;;;;9.21;47.86;100343.56;4928449;29;20048;-69
2023/12/10 10:38:09;;;;;;;8.70;2.50;;;;;;;9.23;48.10;100333.38;4913021;29;20055;-69
2023/12/10 10:40:37;;;;;;;7.05;2.08;;;;;;;9.26;48.05;100330.34;4916037;29;20522;-69
2023/12/10 10:43:05;;;;;;;10.45;2.20;;;;;;;9.30;47.96;100338.13;4916722;29;20031;-69
2023/12/10 10:45:33;;;;;;;8.40;2.05;;;;;;;9.32;48.26;100338.00;4930669;29;20048;-66
2023/12/10 10:48:04;;;;;;;10.10;2.22;;;;;;;9.35;48.60;100338.56;4929489;28;20050;-66
2023/12/10 10:50:35;;;;;;;5.90;2.20;;;;;;;9.37;48.78;100339.31;4942752;29;20043;-66
2023/12/10 10:53:04;;;;;;;8.98;2.30;;;;;;;9.40;48.37;100339.06;4932615;29;20043;-71
2023/12/10 10:55:33;;;;;;;8.30;2.22;;;;;;;9.45;48.52;100335.91;4933191;29;20039;-70
2023/12/10 10:58:22;;;;;;;8.15;2.30;;;;;;;9.50;47.71;100339.06;4936522;28;20051;-71
2023/12/10 11:00:51;;;;;;;8.43;2.05;;;;;;;9.50;48.37;100336.34;4919092;29;20152;-71
2023/12/10 11:03:20;;;;;;;7.38;1.98;;;;;;;9.56;48.00;100335.81;4940857;29;20595;-70
2023/12/10 11:05:48;;;;;;;8.48;2.22;;;;;;;9.57;48.48;100332.06;4909796;29;20047;-70
2023/12/10 11:08:16;;;;;;;11.23;3.45;;;;;;;9.60;48.72;100334.50;4937353;28;20058;-70
2023/12/10 11:10:46;;;;;;;8.57;2.20;;;;;;;9.65;48.63;100340.44;4912637;29;20066;-70
2023/12/10 11:13:15;;;;;;;9.95;2.20;;;;;;;9.67;48.53;100335.66;4933676;29;20122;-70
2023/12/10 11:15:43;;;;;;;10.30;2.10;;;;;;;9.70;48.19;100334.53;4936717;29;20051;-70
2023/12/10 11:18:12;;;;;;;7.50;2.40;;;;;;;9.72;48.21;100344.31;4941675;28;20103;-71
2023/12/10 11:20:43;;;;;;;7.07;3.08;;;;;;;9.75;47.90;100338.53;4948009;29;20061;-70
2023/12/10 11:23:13;;;;;;;5.45;1.98;;;;;;;9.78;48.29;100349.22;4934711;29;20115;-70
2023/12/10 11:25:42;;;;;;;11.13;2.30;;;;;;;9.78;48.41;100351.94;4919610;29;20040;-70
2023/12/10 11:28:12;;;;;;;11.23;3.25;;;;;;;9.83;48.29;100343.31;4944394;29;20497;-70
2023/12/10 11:30:41;;;;;;;7.53;2.35;;;;;;;9.84;48.27;100347.75;4922031;29;20047;-70
2023/12/10 11:33:10;;;;;;;10.38;2.65;;;;;;;9.88;48.28;100340.16;4921087;29;20067;-70
2023/12/10 11:35:38;;;;;;;8.05;2.78;;;;;;;9.90;48.47;100339.03;4929068;29;20070;-76
2023/12/10 11:38:09;;;;;;;7.43;2.15;;;;;;;9.94;47.92;100347.78;4937223;28;20077;-72
2023/12/10 11:40:37;;;;;;;6.78;2.40;;;;;;;9.95;48.23;100344.03;4924025;29;20419;-70
2023/12/10 11:43:06;;;;;;;11.20;3.13;;;;;;;9.98;47.84;100335.56;4940820;29;20040;-72